• Join FlightAware (Why Join?)
  • Login
  • US Flag 
07:09AM EDT


 

Airport Tracker/Info


-or-


 

Live Flight TrackerFlight Track Log ✈ FIN666 ✈ 03-Nov-2013 ✈ EKCH / CPH - EFHK / HEL

Flight Track Log - Related Links

Times and Time Zones

All times are in EST time to prevent confusion due to time zone crossing. See the FIN666 flight status page for this flight to view local times or setup timezone preferences in your user account.

Time Position Orientation Groundspeed Altitude Reporting Facility
EST Latitude Longitude Course Direction KTS MPH feet Rate Location/Type
07:31AM 55.9164 13.2747 49° Northeast  Level Estimated
07:32AM 55.9905 13.4309 50° Northeast  Level Estimated
07:33AM 56.0644 13.5877 50° Northeast  Level Estimated
07:34AM 56.1381 13.7451 50° Northeast  Level Estimated
07:35AM 56.2116 13.9031 50° Northeast  Level Estimated
07:36AM 56.2850 14.0617 50° Northeast  Level Estimated
07:37AM 56.3581 14.2208 50° Northeast  Level Estimated
07:38AM 56.4310 14.3807 50° Northeast  Level Estimated
07:39AM 56.5037 14.5411 51° Northeast  Level Estimated
07:40AM 56.5762 14.7021 51° Northeast  Level Estimated
07:41AM 56.6485 14.8638 51° Northeast  Level Estimated
07:42AM 56.7206 15.0261 51° Northeast  Level Estimated
07:43AM 56.7924 15.1890 51° Northeast  Level Estimated
07:44AM 56.8641 15.3525 51° Northeast  Level Estimated
07:45AM 56.9355 15.5166 51° Northeast  Level Estimated
07:46AM 57.0068 15.6814 52° Northeast  Level Estimated
07:47AM 57.0778 15.8468 52° Northeast  Level Estimated
07:48AM 57.1486 16.0129 52° Northeast  Level Estimated
07:49AM 57.2212 16.1845 52° Northeast  Level Estimated
07:50AM 57.2936 16.3567 52° Northeast  Level Estimated
07:51AM 57.3658 16.5297 52° Northeast  Level Estimated
07:52AM 57.4377 16.7033 52° Northeast  Level Estimated
07:53AM 57.5094 16.8776 53° Northeast  Level Estimated
07:54AM 57.5809 17.0526 53° Northeast  Level Estimated
07:55AM 57.6521 17.2283 53° Northeast  Level Estimated
07:56AM 57.7230 17.4046 53° Northeast  Level Estimated
07:57AM 57.7938 17.5817 53° Northeast  Level Estimated
07:58AM 57.8642 17.7595 53° Northeast  Level Estimated
07:59AM 57.9344 17.9379 53° Northeast  Level Estimated
08:00AM 58.0044 18.1171 54° Northeast  Level Estimated
08:01AM 58.0741 18.2969 54° Northeast  Level Estimated
08:02AM 58.1436 18.4775 54° Northeast  Level Estimated
08:03AM 58.2128 18.6587 54° Northeast  Level Estimated
08:04AM 58.2817 18.8407 54° Northeast  Level Estimated
08:05AM 58.3504 19.0234 54° Northeast  Level Estimated
08:06AM 58.4189 19.2068 54° Northeast  Level Estimated
08:07AM 58.4870 19.3909 55° Northeast  Level Estimated
08:08AM 58.5549 19.5757 55° Northeast  Level Estimated
08:09AM 58.6226 19.7612 55° Northeast  Level Estimated
08:10AM 58.6899 19.9474 55° Northeast  Level Estimated
08:11AM 58.7570 20.1344 55° Northeast  Level Estimated
08:12AM 58.8239 20.3221 55° Northeast  Level Estimated
08:13AM 58.8904 20.5105 56° Northeast  Level Estimated
08:14AM 58.9567 20.6996 56° Northeast  Level Estimated
08:15AM 59.0227 20.8895 56° Northeast  Level Estimated
08:16AM 59.0884 21.0801 56° Northeast  Level Estimated
08:17AM 59.1529 21.2686 56° Northeast  Level Estimated
08:18AM 59.2171 21.4579 56° Northeast  Level Estimated
08:19AM 59.2811 21.6479 57° Northeast  Level Estimated
08:20AM 59.3340 21.8063 57° Northeast  Level Estimated
08:21AM 59.3868 21.9653 57° Northeast  Level Estimated
08:22AM 59.4393 22.1248 57° Northeast  Level Estimated
08:23AM 59.4917 22.2847 57° Northeast  Level Estimated
08:24AM 59.5439 22.4452 57° Northeast  Level Estimated
08:25AM 59.5959 22.6061 57° Northeast  Level Estimated
08:26AM 59.6476 22.7675 58° Northeast  Level Estimated
08:27AM 59.6992 22.9295 58° Northeast  Level Estimated
08:28AM 59.7506 23.0919 58° Northeast  Level Estimated
08:29AM 59.8018 23.2549 58° Northeast  Level Estimated
08:30AM 59.8527 23.4183 58° Northeast  Level Estimated
08:31AM 59.9035 23.5822 58° Northeast  Level Estimated
08:32AM 59.9541 23.7467 58° Northeast  Level Estimated
08:33AM 60.0044 23.9116 59° Northeast  Level Estimated
08:34AM 60.0546 24.0770 59° Northeast  Level Estimated
08:35AM 60.1045 24.2430 59° Northeast  Level Estimated
08:36AM 60.1543 24.4094 59° Northeast  Level Estimated
08:37AM 60.2038 24.5764 59° Northeast  Level Estimated
08:38AM 60.2531 24.7438 59° Northeast  Level Estimated
08:39AM 60.3022 24.9118 59° Northeast  Level Estimated
08:40AM 60.3172 24.9633 60° Northeast  Level Estimated
08:41AM 60.3172 24.9633 37° Northeast  Level Estimated
08:42AM 60.3172 24.9633 37° Northeast  Level Estimated
08:43AM 60.3172 24.9633 37° Northeast  Level Estimated
08:44AM 60.3172 24.9633 37° Northeast  Level Estimated
08:45AM 60.3172 24.9633 37° Northeast  Level Estimated
08:46AM 60.3172 24.9633 37° Northeast  Level Estimated
08:47AM 60.3172 24.9633 37° Northeast  Level Estimated
08:48AM 60.3172 24.9633 37° Northeast  Level Estimated
08:49AM 60.3172 24.9633 37° Northeast  Level Estimated
08:50AM 60.3172 24.9633 37° Northeast  Level Estimated
08:51AM 60.3172 24.9633 37° Northeast  Level Estimated
08:52AM 60.3172 24.9633 37° Northeast  Level Estimated
08:53AM 60.3172 24.9633 37° Northeast  Level Estimated
08:54AM 60.3172 24.9633 37° Northeast  Level Estimated
08:55AM 60.3172 24.9633 37° Northeast  Level Estimated
08:56AM 60.3172 24.9633 37° Northeast  Level Estimated
08:57AM 60.3172 24.9633 37° Northeast  Level Estimated
08:58AM 60.3172 24.9633 37° Northeast  Level Estimated
08:59AM 60.3172 24.9633 37° Northeast  Level Estimated
09:00AM 60.3172 24.9633 37° Northeast  Level Estimated
09:01AM 60.3172 24.9633 37° Northeast  Level Estimated
09:02AM 60.3172 24.9633 37° Northeast  Level Estimated
09:03AM 60.3172 24.9633 37° Northeast  Level Estimated
09:04AM 60.3172 24.9633 37° Northeast  Level Estimated
09:05AM 60.3172 24.9633 37° Northeast  Level Estimated
09:06AM 60.3172 24.9633 37° Northeast  Level Estimated
09:07AM 60.3172 24.9633 37° Northeast  Level Estimated
09:08AM 60.3172 24.9633 37° Northeast  Level Estimated
09:09AM 60.3172 24.9633 37° Northeast  Level Estimated
09:10AM 60.3172 24.9633 37° Northeast  Level Estimated
09:11AM 60.3172 24.9633 37° Northeast  Level Estimated